Chalgrove, United Kingdom
Current Conditions -  °F | °C
As of 11:50 PM on Tuesday 25 Nov 2014 (Local Time) from EGUB Reporting Station
Moderate Rain Moderate Rain  
Wind Chill: 40°   Ceiling: 800
Heat Index: 43°   Visibility: 1.8mi
Dew Point: 43°   Wind: 5mph
Humidity: 100%   Direction: 90°E
Pressure: 29.97"   Gusts: NA
Location:  51.66°N, 1.08°W
Report Text: EGUB 252350Z 09004KT 3000 RADZ FEW006 BKN008 06/06 Q1015 YLO1
Loading
Personal Weather Stations






























Interactive Weather Map New forecast layout! Learn more

10-Day Weather Forecast

Advertisements
Track Severe Weather on mobile